sensor_id;sensor_type;location;lat;lon;timestamp;temperature;humidity
21502;DHT22;27639;48.674;9.242;2023-08-06T00:02:23;20.50;64.10
21502;DHT22;27639;48.674;9.242;2023-08-06T00:04:48;20.50;63.90
21502;DHT22;27639;48.674;9.242;2023-08-06T00:07:14;20.40;63.80
21502;DHT22;27639;48.674;9.242;2023-08-06T00:09:39;20.40;63.70
21502;DHT22;27639;48.674;9.242;2023-08-06T00:12:05;20.40;63.70
21502;DHT22;27639;48.674;9.242;2023-08-06T00:14:31;20.40;63.60
21502;DHT22;27639;48.674;9.242;2023-08-06T00:16:56;20.30;63.30
21502;DHT22;27639;48.674;9.242;2023-08-06T00:19:22;20.30;63.20
21502;DHT22;27639;48.674;9.242;2023-08-06T00:21:47;20.30;63.20
21502;DHT22;27639;48.674;9.242;2023-08-06T00:24:13;20.20;62.90
21502;DHT22;27639;48.674;9.242;2023-08-06T00:26:39;20.20;62.90
21502;DHT22;27639;48.674;9.242;2023-08-06T00:29:04;20.20;62.80
21502;DHT22;27639;48.674;9.242;2023-08-06T00:31:30;20.20;62.80
21502;DHT22;27639;48.674;9.242;2023-08-06T00:33:55;20.20;63.10
21502;DHT22;27639;48.674;9.242;2023-08-06T00:36:21;20.20;63.10
21502;DHT22;27639;48.674;9.242;2023-08-06T00:38:47;20.20;63.10
21502;DHT22;27639;48.674;9.242;2023-08-06T00:41:12;20.20;63.10
21502;DHT22;27639;48.674;9.242;2023-08-06T00:43:38;20.10;63.00
21502;DHT22;27639;48.674;9.242;2023-08-06T00:46:03;20.00;63.10
21502;DHT22;27639;48.674;9.242;2023-08-06T00:48:29;20.00;63.10
21502;DHT22;27639;48.674;9.242;2023-08-06T00:50:55;19.90;63.20
21502;DHT22;27639;48.674;9.242;2023-08-06T00:53:21;19.90;63.20
21502;DHT22;27639;48.674;9.242;2023-08-06T00:55:46;19.80;63.10
21502;DHT22;27639;48.674;9.242;2023-08-06T00:58:14;19.80;63.10
21502;DHT22;27639;48.674;9.242;2023-08-06T01:00:41;19.90;63.00
21502;DHT22;27639;48.674;9.242;2023-08-06T01:03:06;19.90;63.00
21502;DHT22;27639;48.674;9.242;2023-08-06T01:05:32;19.90;62.90
21502;DHT22;27639;48.674;9.242;2023-08-06T01:11:28;19.90;62.60
21502;DHT22;27639;48.674;9.242;2023-08-06T01:16:15;19.80;62.40
21502;DHT22;27639;48.674;9.242;2023-08-06T01:18:41;19.80;62.10
21502;DHT22;27639;48.674;9.242;2023-08-06T01:21:08;19.80;62.10
21502;DHT22;27639;48.674;9.242;2023-08-06T01:23:34;19.80;62.20
21502;DHT22;27639;48.674;9.242;2023-08-06T01:28:48;19.80;62.30
21502;DHT22;27639;48.674;9.242;2023-08-06T01:31:20;19.70;61.90
21502;DHT22;27639;48.674;9.242;2023-08-06T01:33:48;19.70;62.20
21502;DHT22;27639;48.674;9.242;2023-08-06T01:36:16;19.60;62.00
21502;DHT22;27639;48.674;9.242;2023-08-06T01:38:43;19.50;62.00
21502;DHT22;27639;48.674;9.242;2023-08-06T01:41:08;19.50;62.10
21502;DHT22;27639;48.674;9.242;2023-08-06T01:43:34;19.50;62.20
21502;DHT22;27639;48.674;9.242;2023-08-06T01:46:00;19.50;62.20
21502;DHT22;27639;48.674;9.242;2023-08-06T01:48:25;19.50;62.20
21502;DHT22;27639;48.674;9.242;2023-08-06T01:50:51;19.40;61.90
21502;DHT22;27639;48.674;9.242;2023-08-06T01:53:16;19.40;61.90
21502;DHT22;27639;48.674;9.242;2023-08-06T01:55:42;19.40;61.90
21502;DHT22;27639;48.674;9.242;2023-08-06T01:58:07;19.40;61.70
21502;DHT22;27639;48.674;9.242;2023-08-06T02:00:33;19.40;61.50
21502;DHT22;27639;48.674;9.242;2023-08-06T02:02:58;19.30;62.20
21502;DHT22;27639;48.674;9.242;2023-08-06T02:05:24;19.30;61.50
21502;DHT22;27639;48.674;9.242;2023-08-06T02:07:49;19.30;61.30
21502;DHT22;27639;48.674;9.242;2023-08-06T02:10:15;19.30;61.30
21502;DHT22;27639;48.674;9.242;2023-08-06T02:12:40;19.20;61.20
21502;DHT22;27639;48.674;9.242;2023-08-06T02:15:07;19.10;61.00
21502;DHT22;27639;48.674;9.242;2023-08-06T02:17:32;19.10;61.20
21502;DHT22;27639;48.674;9.242;2023-08-06T02:19:58;19.20;61.40
21502;DHT22;27639;48.674;9.242;2023-08-06T02:22:24;19.20;61.90
21502;DHT22;27639;48.674;9.242;2023-08-06T02:24:49;19.20;61.10
21502;DHT22;27639;48.674;9.242;2023-08-06T02:27:15;19.20;60.90
21502;DHT22;27639;48.674;9.242;2023-08-06T02:29:40;19.20;60.70
21502;DHT22;27639;48.674;9.242;2023-08-06T02:32:07;19.10;60.60
21502;DHT22;27639;48.674;9.242;2023-08-06T02:34:33;19.10;60.60
21502;DHT22;27639;48.674;9.242;2023-08-06T02:36:58;19.10;60.80
21502;DHT22;27639;48.674;9.242;2023-08-06T02:39:24;19.00;60.60
21502;DHT22;27639;48.674;9.242;2023-08-06T02:41:49;19.00;60.60
21502;DHT22;27639;48.674;9.242;2023-08-06T02:44:15;19.00;60.70
21502;DHT22;27639;48.674;9.242;2023-08-06T02:46:40;19.00;60.70
21502;DHT22;27639;48.674;9.242;2023-08-06T02:49:06;19.00;60.70
21502;DHT22;27639;48.674;9.242;2023-08-06T02:51:32;18.90;60.60
21502;DHT22;27639;48.674;9.242;2023-08-06T02:53:57;18.90;60.70
21502;DHT22;27639;48.674;9.242;2023-08-06T02:56:23;18.90;60.50
21502;DHT22;27639;48.674;9.242;2023-08-06T02:58:48;18.90;60.30
21502;DHT22;27639;48.674;9.242;2023-08-06T03:01:14;18.90;60.30
21502;DHT22;27639;48.674;9.242;2023-08-06T03:03:41;18.80;60.40
21502;DHT22;27639;48.674;9.242;2023-08-06T03:06:06;18.80;60.40
21502;DHT22;27639;48.674;9.242;2023-08-06T03:08:32;18.80;60.20
21502;DHT22;27639;48.674;9.242;2023-08-06T03:10:58;18.80;60.30
21502;DHT22;27639;48.674;9.242;2023-08-06T03:13:23;18.80;60.30
21502;DHT22;27639;48.674;9.242;2023-08-06T03:15:53;18.70;60.20
21502;DHT22;27639;48.674;9.242;2023-08-06T03:18:19;18.70;60.10
21502;DHT22;27639;48.674;9.242;2023-08-06T03:20:45;18.60;60.20
21502;DHT22;27639;48.674;9.242;2023-08-06T03:23:11;18.50;60.30
21502;DHT22;27639;48.674;9.242;2023-08-06T03:25:36;18.50;60.60
21502;DHT22;27639;48.674;9.242;2023-08-06T03:28:02;18.50;60.70
21502;DHT22;27639;48.674;9.242;2023-08-06T03:30:27;18.50;60.50
21502;DHT22;27639;48.674;9.242;2023-08-06T03:32:53;18.50;60.30
21502;DHT22;27639;48.674;9.242;2023-08-06T03:35:19;18.50;60.30
21502;DHT22;27639;48.674;9.242;2023-08-06T03:37:44;18.50;60.30
21502;DHT22;27639;48.674;9.242;2023-08-06T03:40:10;18.50;60.30
21502;DHT22;27639;48.674;9.242;2023-08-06T03:42:36;18.50;60.20
21502;DHT22;27639;48.674;9.242;2023-08-06T03:45:01;18.60;60.40
21502;DHT22;27639;48.674;9.242;2023-08-06T03:47:27;18.50;60.30
21502;DHT22;27639;48.674;9.242;2023-08-06T03:49:52;18.50;60.30
21502;DHT22;27639;48.674;9.242;2023-08-06T03:52:18;18.50;60.30
21502;DHT22;27639;48.674;9.242;2023-08-06T03:54:43;18.50;60.30
21502;DHT22;27639;48.674;9.242;2023-08-06T03:57:09;18.50;60.30
21502;DHT22;27639;48.674;9.242;2023-08-06T03:59:35;18.50;60.30
21502;DHT22;27639;48.674;9.242;2023-08-06T04:02:01;18.50;60.20
21502;DHT22;27639;48.674;9.242;2023-08-06T04:04:27;18.50;60.10
21502;DHT22;27639;48.674;9.242;2023-08-06T04:06:53;18.50;60.10
21502;DHT22;27639;48.674;9.242;2023-08-06T04:09:18;18.50;60.20
21502;DHT22;27639;48.674;9.242;2023-08-06T04:11:44;18.50;60.30
21502;DHT22;27639;48.674;9.242;2023-08-06T04:14:10;18.50;60.30
21502;DHT22;27639;48.674;9.242;2023-08-06T04:16:35;18.50;60.40
21502;DHT22;27639;48.674;9.242;2023-08-06T04:19:01;18.50;60.60
21502;DHT22;27639;48.674;9.242;2023-08-06T04:21:26;18.40;60.70
21502;DHT22;27639;48.674;9.242;2023-08-06T04:23:52;18.40;60.80
21502;DHT22;27639;48.674;9.242;2023-08-06T04:26:18;18.40;60.90
21502;DHT22;27639;48.674;9.242;2023-08-06T04:28:43;18.30;61.20
21502;DHT22;27639;48.674;9.242;2023-08-06T04:31:09;18.30;61.50
21502;DHT22;27639;48.674;9.242;2023-08-06T04:33:34;18.30;61.50
21502;DHT22;27639;48.674;9.242;2023-08-06T04:36:00;18.30;61.40
21502;DHT22;27639;48.674;9.242;2023-08-06T04:38:26;18.30;61.70
21502;DHT22;27639;48.674;9.242;2023-08-06T04:40:52;18.20;61.90
21502;DHT22;27639;48.674;9.242;2023-08-06T04:43:18;18.20;62.20
21502;DHT22;27639;48.674;9.242;2023-08-06T04:45:48;18.10;62.20
21502;DHT22;27639;48.674;9.242;2023-08-06T04:48:14;18.10;62.50
21502;DHT22;27639;48.674;9.242;2023-08-06T04:50:47;18.10;62.80
21502;DHT22;27639;48.674;9.242;2023-08-06T04:53:12;18.10;63.00
21502;DHT22;27639;48.674;9.242;2023-08-06T04:55:38;17.90;63.00
21502;DHT22;27639;48.674;9.242;2023-08-06T04:58:04;17.90;63.40
21502;DHT22;27639;48.674;9.242;2023-08-06T05:00:29;17.90;63.40
21502;DHT22;27639;48.674;9.242;2023-08-06T05:02:55;17.80;63.50
21502;DHT22;27639;48.674;9.242;2023-08-06T05:05:21;17.80;64.10
21502;DHT22;27639;48.674;9.242;2023-08-06T05:07:49;17.80;63.60
21502;DHT22;27639;48.674;9.242;2023-08-06T05:10:15;17.80;63.60
21502;DHT22;27639;48.674;9.242;2023-08-06T05:12:41;17.80;63.80
21502;DHT22;27639;48.674;9.242;2023-08-06T05:15:07;17.70;63.70
21502;DHT22;27639;48.674;9.242;2023-08-06T05:17:32;17.80;63.80
21502;DHT22;27639;48.674;9.242;2023-08-06T05:19:58;17.80;63.80
21502;DHT22;27639;48.674;9.242;2023-08-06T05:22:23;17.90;64.30
21502;DHT22;27639;48.674;9.242;2023-08-06T05:24:49;18.10;64.20
21502;DHT22;27639;48.674;9.242;2023-08-06T05:27:15;18.40;66.10
21502;DHT22;27639;48.674;9.242;2023-08-06T05:29:40;19.00;64.30
21502;DHT22;27639;48.674;9.242;2023-08-06T05:32:06;19.40;63.50
21502;DHT22;27639;48.674;9.242;2023-08-06T05:34:32;19.90;62.50
21502;DHT22;27639;48.674;9.242;2023-08-06T05:36:57;20.30;61.80
21502;DHT22;27639;48.674;9.242;2023-08-06T05:39:23;20.80;60.40
21502;DHT22;27639;48.674;9.242;2023-08-06T05:41:49;21.10;59.30
21502;DHT22;27639;48.674;9.242;2023-08-06T05:44:15;21.40;58.50
21502;DHT22;27639;48.674;9.242;2023-08-06T05:46:41;21.90;57.70
21502;DHT22;27639;48.674;9.242;2023-08-06T05:49:06;22.20;56.50
21502;DHT22;27639;48.674;9.242;2023-08-06T05:51:32;22.20;55.10
21502;DHT22;27639;48.674;9.242;2023-08-06T05:53:57;21.90;54.90
21502;DHT22;27639;48.674;9.242;2023-08-06T05:56:23;21.60;55.10
21502;DHT22;27639;48.674;9.242;2023-08-06T05:58:49;21.30;55.40
21502;DHT22;27639;48.674;9.242;2023-08-06T06:01:16;21.10;55.60
21502;DHT22;27639;48.674;9.242;2023-08-06T06:03:42;20.80;55.90
21502;DHT22;27639;48.674;9.242;2023-08-06T06:06:07;20.60;56.20
21502;DHT22;27639;48.674;9.242;2023-08-06T06:08:33;20.40;56.50
21502;DHT22;27639;48.674;9.242;2023-08-06T06:10:59;20.20;56.70
21502;DHT22;27639;48.674;9.242;2023-08-06T06:13:25;20.20;57.10
21502;DHT22;27639;48.674;9.242;2023-08-06T06:15:52;20.10;57.20
21502;DHT22;27639;48.674;9.242;2023-08-06T06:18:19;19.90;57.40
21502;DHT22;27639;48.674;9.242;2023-08-06T06:20:44;19.70;57.60
21502;DHT22;27639;48.674;9.242;2023-08-06T06:23:10;19.70;57.70
21502;DHT22;27639;48.674;9.242;2023-08-06T06:25:35;19.60;58.10
21502;DHT22;27639;48.674;9.242;2023-08-06T06:28:01;19.40;58.30
21502;DHT22;27639;48.674;9.242;2023-08-06T06:30:27;19.30;58.50
21502;DHT22;27639;48.674;9.242;2023-08-06T06:32:52;19.20;58.70
21502;DHT22;27639;48.674;9.242;2023-08-06T06:35:18;19.10;59.00
21502;DHT22;27639;48.674;9.242;2023-08-06T06:37:43;19.10;59.00
21502;DHT22;27639;48.674;9.242;2023-08-06T06:40:09;19.00;59.10
21502;DHT22;27639;48.674;9.242;2023-08-06T06:42:35;19.00;59.50
21502;DHT22;27639;48.674;9.242;2023-08-06T06:45:01;18.90;59.50
21502;DHT22;27639;48.674;9.242;2023-08-06T06:47:26;18.90;59.60
21502;DHT22;27639;48.674;9.242;2023-08-06T06:49:52;18.90;59.60
21502;DHT22;27639;48.674;9.242;2023-08-06T06:52:17;18.70;59.80
21502;DHT22;27639;48.674;9.242;2023-08-06T06:54:43;18.70;59.90
21502;DHT22;27639;48.674;9.242;2023-08-06T06:57:08;18.60;60.10
21502;DHT22;27639;48.674;9.242;2023-08-06T06:59:34;18.60;60.40
21502;DHT22;27639;48.674;9.242;2023-08-06T07:01:59;18.60;60.40
21502;DHT22;27639;48.674;9.242;2023-08-06T07:04:25;18.60;60.40
21502;DHT22;27639;48.674;9.242;2023-08-06T07:06:50;18.50;60.60
21502;DHT22;27639;48.674;9.242;2023-08-06T07:09:17;18.40;60.90
21502;DHT22;27639;48.674;9.242;2023-08-06T07:11:43;18.40;61.20
21502;DHT22;27639;48.674;9.242;2023-08-06T07:14:09;18.40;61.50
21502;DHT22;27639;48.674;9.242;2023-08-06T07:16:35;18.40;61.60
21502;DHT22;27639;48.674;9.242;2023-08-06T07:19:00;18.40;61.70
21502;DHT22;27639;48.674;9.242;2023-08-06T07:21:26;18.40;62.00
21502;DHT22;27639;48.674;9.242;2023-08-06T07:23:51;18.40;62.30
21502;DHT22;27639;48.674;9.242;2023-08-06T07:26:17;18.40;62.40
21502;DHT22;27639;48.674;9.242;2023-08-06T07:28:43;18.40;62.60
21502;DHT22;27639;48.674;9.242;2023-08-06T07:31:09;18.40;62.60
21502;DHT22;27639;48.674;9.242;2023-08-06T07:33:35;18.20;62.60
21502;DHT22;27639;48.674;9.242;2023-08-06T07:36:10;18.20;63.00
21502;DHT22;27639;48.674;9.242;2023-08-06T07:38:36;18.20;63.30
21502;DHT22;27639;48.674;9.242;2023-08-06T07:41:02;18.10;63.30
21502;DHT22;27639;48.674;9.242;2023-08-06T07:43:28;18.10;63.90
21502;DHT22;27639;48.674;9.242;2023-08-06T07:45:53;18.00;64.00
21502;DHT22;27639;48.674;9.242;2023-08-06T07:48:19;18.00;64.30
21502;DHT22;27639;48.674;9.242;2023-08-06T07:50:44;18.00;64.30
21502;DHT22;27639;48.674;9.242;2023-08-06T07:53:15;18.10;64.60
21502;DHT22;27639;48.674;9.242;2023-08-06T07:55:41;18.10;64.70
21502;DHT22;27639;48.674;9.242;2023-08-06T07:58:07;18.10;64.40
21502;DHT22;27639;48.674;9.242;2023-08-06T08:00:33;18.20;64.30
21502;DHT22;27639;48.674;9.242;2023-08-06T08:02:58;18.30;64.40
21502;DHT22;27639;48.674;9.242;2023-08-06T08:05:24;18.30;64.40
21502;DHT22;27639;48.674;9.242;2023-08-06T08:07:49;18.30;63.90
21502;DHT22;27639;48.674;9.242;2023-08-06T08:10:15;18.30;63.20
21502;DHT22;27639;48.674;9.242;2023-08-06T08:12:40;18.30;63.30
21502;DHT22;27639;48.674;9.242;2023-08-06T08:15:06;18.30;63.60
21502;DHT22;27639;48.674;9.242;2023-08-06T08:17:32;18.30;63.90
21502;DHT22;27639;48.674;9.242;2023-08-06T08:19:57;18.40;64.00
21502;DHT22;27639;48.674;9.242;2023-08-06T08:22:23;18.50;64.10
21502;DHT22;27639;48.674;9.242;2023-08-06T08:24:49;18.70;64.00
21502;DHT22;27639;48.674;9.242;2023-08-06T08:27:14;18.70;63.80
21502;DHT22;27639;48.674;9.242;2023-08-06T08:29:40;18.80;63.30
21502;DHT22;27639;48.674;9.242;2023-08-06T08:32:05;18.80;62.80
21502;DHT22;27639;48.674;9.242;2023-08-06T08:34:31;18.90;63.00
21502;DHT22;27639;48.674;9.242;2023-08-06T08:36:57;18.90;62.80
21502;DHT22;27639;48.674;9.242;2023-08-06T08:39:23;18.90;62.80
21502;DHT22;27639;48.674;9.242;2023-08-06T08:41:49;18.90;63.00
21502;DHT22;27639;48.674;9.242;2023-08-06T08:44:16;18.90;63.00
21502;DHT22;27639;48.674;9.242;2023-08-06T08:46:44;18.80;63.20
21502;DHT22;27639;48.674;9.242;2023-08-06T08:49:10;18.70;63.20
21502;DHT22;27639;48.674;9.242;2023-08-06T08:51:36;18.70;63.70
21502;DHT22;27639;48.674;9.242;2023-08-06T08:54:07;18.60;63.90
21502;DHT22;27639;48.674;9.242;2023-08-06T08:56:33;18.60;63.80
21502;DHT22;27639;48.674;9.242;2023-08-06T08:58:59;18.60;64.10
21502;DHT22;27639;48.674;9.242;2023-08-06T09:01:25;18.60;63.90
21502;DHT22;27639;48.674;9.242;2023-08-06T09:03:51;18.60;63.60
21502;DHT22;27639;48.674;9.242;2023-08-06T09:06:20;18.60;63.80
21502;DHT22;27639;48.674;9.242;2023-08-06T09:09:14;18.60;63.40
21502;DHT22;27639;48.674;9.242;2023-08-06T09:11:43;18.60;63.40
21502;DHT22;27639;48.674;9.242;2023-08-06T09:14:10;18.50;63.70
21502;DHT22;27639;48.674;9.242;2023-08-06T09:16:36;18.60;64.00
21502;DHT22;27639;48.674;9.242;2023-08-06T09:19:12;18.60;64.00
21502;DHT22;27639;48.674;9.242;2023-08-06T09:21:42;18.60;64.00
21502;DHT22;27639;48.674;9.242;2023-08-06T09:24:12;18.50;64.40
21502;DHT22;27639;48.674;9.242;2023-08-06T09:26:38;18.60;64.20
21502;DHT22;27639;48.674;9.242;2023-08-06T09:29:08;18.60;64.50
21502;DHT22;27639;48.674;9.242;2023-08-06T09:31:45;18.70;64.60
21502;DHT22;27639;48.674;9.242;2023-08-06T09:34:18;18.70;64.40
21502;DHT22;27639;48.674;9.242;2023-08-06T09:36:54;18.90;64.40
21502;DHT22;27639;48.674;9.242;2023-08-06T09:39:30;19.00;64.30
21502;DHT22;27639;48.674;9.242;2023-08-06T09:41:57;19.10;64.20
21502;DHT22;27639;48.674;9.242;2023-08-06T09:44:25;19.20;63.60
21502;DHT22;27639;48.674;9.242;2023-08-06T09:46:55;19.30;63.40
21502;DHT22;27639;48.674;9.242;2023-08-06T09:49:25;19.20;63.10
21502;DHT22;27639;48.674;9.242;2023-08-06T09:51:52;19.20;62.90
21502;DHT22;27639;48.674;9.242;2023-08-06T09:54:22;19.20;63.30
21502;DHT22;27639;48.674;9.242;2023-08-06T09:56:48;19.30;63.40
21502;DHT22;27639;48.674;9.242;2023-08-06T09:59:14;19.20;63.30
21502;DHT22;27639;48.674;9.242;2023-08-06T10:01:41;19.20;63.60
21502;DHT22;27639;48.674;9.242;2023-08-06T10:04:07;19.10;63.40
21502;DHT22;27639;48.674;9.242;2023-08-06T10:06:37;19.20;63.60
21502;DHT22;27639;48.674;9.242;2023-08-06T10:09:06;19.20;63.80
21502;DHT22;27639;48.674;9.242;2023-08-06T10:11:32;19.20;63.90
21502;DHT22;27639;48.674;9.242;2023-08-06T10:14:12;19.10;63.90
21502;DHT22;27639;48.674;9.242;2023-08-06T10:16:40;19.10;63.90
21502;DHT22;27639;48.674;9.242;2023-08-06T10:19:07;19.10;64.10
21502;DHT22;27639;48.674;9.242;2023-08-06T10:21:34;19.00;64.10
21502;DHT22;27639;48.674;9.242;2023-08-06T10:24:00;19.00;63.90
21502;DHT22;27639;48.674;9.242;2023-08-06T10:26:28;18.90;64.20
21502;DHT22;27639;48.674;9.242;2023-08-06T10:28:53;18.90;64.30
21502;DHT22;27639;48.674;9.242;2023-08-06T10:31:19;18.80;64.80
21502;DHT22;27639;48.674;9.242;2023-08-06T10:33:46;18.80;65.20
21502;DHT22;27639;48.674;9.242;2023-08-06T10:36:12;18.80;65.30
21502;DHT22;27639;48.674;9.242;2023-08-06T10:38:48;18.90;65.40
21502;DHT22;27639;48.674;9.242;2023-08-06T10:41:28;18.90;65.60
21502;DHT22;27639;48.674;9.242;2023-08-06T10:44:07;18.90;65.60
21502;DHT22;27639;48.674;9.242;2023-08-06T10:46:36;18.90;65.70
21502;DHT22;27639;48.674;9.242;2023-08-06T10:49:03;18.90;66.10
21502;DHT22;27639;48.674;9.242;2023-08-06T10:51:29;18.90;66.10
21502;DHT22;27639;48.674;9.242;2023-08-06T10:53:55;18.80;66.00
21502;DHT22;27639;48.674;9.242;2023-08-06T10:56:24;18.80;66.20
21502;DHT22;27639;48.674;9.242;2023-08-06T10:58:54;18.80;66.50
21502;DHT22;27639;48.674;9.242;2023-08-06T11:01:24;18.90;66.60
21502;DHT22;27639;48.674;9.242;2023-08-06T11:03:50;18.80;66.90
21502;DHT22;27639;48.674;9.242;2023-08-06T11:06:22;18.90;66.80
21502;DHT22;27639;48.674;9.242;2023-08-06T11:08:52;18.90;66.80
21502;DHT22;27639;48.674;9.242;2023-08-06T11:11:18;19.00;66.80
21502;DHT22;27639;48.674;9.242;2023-08-06T11:13:46;19.00;66.90
21502;DHT22;27639;48.674;9.242;2023-08-06T11:16:22;19.00;66.90
21502;DHT22;27639;48.674;9.242;2023-08-06T11:18:50;19.10;66.80
21502;DHT22;27639;48.674;9.242;2023-08-06T11:21:19;19.20;67.00
21502;DHT22;27639;48.674;9.242;2023-08-06T11:23:45;19.30;66.60
21502;DHT22;27639;48.674;9.242;2023-08-06T11:26:11;19.30;66.50
21502;DHT22;27639;48.674;9.242;2023-08-06T11:28:36;19.30;66.20
21502;DHT22;27639;48.674;9.242;2023-08-06T11:31:02;19.30;65.90
21502;DHT22;27639;48.674;9.242;2023-08-06T11:33:29;19.40;65.40
21502;DHT22;27639;48.674;9.242;2023-08-06T11:35:56;19.20;65.30
21502;DHT22;27639;48.674;9.242;2023-08-06T11:38:27;19.20;65.30
21502;DHT22;27639;48.674;9.242;2023-08-06T11:40:54;19.30;64.30
21502;DHT22;27639;48.674;9.242;2023-08-06T11:43:20;19.40;64.40
21502;DHT22;27639;48.674;9.242;2023-08-06T11:45:49;19.40;63.10
21502;DHT22;27639;48.674;9.242;2023-08-06T11:48:16;19.40;62.40
21502;DHT22;27639;48.674;9.242;2023-08-06T11:50:43;19.40;62.10
21502;DHT22;27639;48.674;9.242;2023-08-06T11:53:12;19.40;61.40
21502;DHT22;27639;48.674;9.242;2023-08-06T11:55:38;19.40;61.50
21502;DHT22;27639;48.674;9.242;2023-08-06T11:58:04;19.30;61.30
21502;DHT22;27639;48.674;9.242;2023-08-06T12:00:32;19.40;61.30
21502;DHT22;27639;48.674;9.242;2023-08-06T12:02:58;19.40;60.90
21502;DHT22;27639;48.674;9.242;2023-08-06T12:05:33;19.40;60.70
21502;DHT22;27639;48.674;9.242;2023-08-06T12:08:00;19.30;60.30
21502;DHT22;27639;48.674;9.242;2023-08-06T12:10:28;19.30;60.10
21502;DHT22;27639;48.674;9.242;2023-08-06T12:12:54;19.40;59.70
21502;DHT22;27639;48.674;9.242;2023-08-06T12:15:20;19.30;60.00
21502;DHT22;27639;48.674;9.242;2023-08-06T12:17:46;19.20;60.20
21502;DHT22;27639;48.674;9.242;2023-08-06T12:20:12;19.30;60.30
21502;DHT22;27639;48.674;9.242;2023-08-06T12:22:38;19.30;59.80
21502;DHT22;27639;48.674;9.242;2023-08-06T12:25:10;19.30;59.60
21502;DHT22;27639;48.674;9.242;2023-08-06T12:27:45;19.30;59.60
21502;DHT22;27639;48.674;9.242;2023-08-06T12:30:12;19.40;59.10
21502;DHT22;27639;48.674;9.242;2023-08-06T12:32:38;19.40;59.50
21502;DHT22;27639;48.674;9.242;2023-08-06T12:35:04;19.40;58.60
21502;DHT22;27639;48.674;9.242;2023-08-06T12:37:30;19.30;58.70
21502;DHT22;27639;48.674;9.242;2023-08-06T12:39:55;19.30;58.90
21502;DHT22;27639;48.674;9.242;2023-08-06T12:42:21;19.30;58.70
21502;DHT22;27639;48.674;9.242;2023-08-06T12:44:48;19.40;58.50
21502;DHT22;27639;48.674;9.242;2023-08-06T12:47:16;19.40;57.90
21502;DHT22;27639;48.674;9.242;2023-08-06T12:49:41;19.50;58.00
21502;DHT22;27639;48.674;9.242;2023-08-06T12:52:07;19.60;58.10
21502;DHT22;27639;48.674;9.242;2023-08-06T12:54:34;19.60;58.00
21502;DHT22;27639;48.674;9.242;2023-08-06T12:57:03;19.60;58.10
21502;DHT22;27639;48.674;9.242;2023-08-06T12:59:29;19.50;58.00
21502;DHT22;27639;48.674;9.242;2023-08-06T13:01:54;19.60;58.10
21502;DHT22;27639;48.674;9.242;2023-08-06T13:04:20;19.50;58.00
21502;DHT22;27639;48.674;9.242;2023-08-06T13:06:46;19.50;58.00
21502;DHT22;27639;48.674;9.242;2023-08-06T13:09:12;19.50;58.00
21502;DHT22;27639;48.674;9.242;2023-08-06T13:11:39;19.60;58.00
21502;DHT22;27639;48.674;9.242;2023-08-06T13:14:07;19.50;58.00
21502;DHT22;27639;48.674;9.242;2023-08-06T13:16:33;19.50;57.80
21502;DHT22;27639;48.674;9.242;2023-08-06T13:18:59;19.60;57.70
21502;DHT22;27639;48.674;9.242;2023-08-06T13:21:32;19.60;57.90
21502;DHT22;27639;48.674;9.242;2023-08-06T13:23:59;19.60;57.40
21502;DHT22;27639;48.674;9.242;2023-08-06T13:26:25;19.60;57.70
21502;DHT22;27639;48.674;9.242;2023-08-06T13:28:50;19.60;57.30
21502;DHT22;27639;48.674;9.242;2023-08-06T13:31:16;19.60;57.40
21502;DHT22;27639;48.674;9.242;2023-08-06T13:33:42;19.70;57.40
21502;DHT22;27639;48.674;9.242;2023-08-06T13:36:07;19.70;57.10
21502;DHT22;27639;48.674;9.242;2023-08-06T13:38:33;19.80;57.00
21502;DHT22;27639;48.674;9.242;2023-08-06T13:40:59;19.80;56.40
21502;DHT22;27639;48.674;9.242;2023-08-06T13:43:24;19.70;56.50
21502;DHT22;27639;48.674;9.242;2023-08-06T13:45:50;19.70;56.40
21502;DHT22;27639;48.674;9.242;2023-08-06T13:48:15;19.60;56.20
21502;DHT22;27639;48.674;9.242;2023-08-06T13:50:41;19.70;56.30
21502;DHT22;27639;48.674;9.242;2023-08-06T13:53:06;19.80;56.60
21502;DHT22;27639;48.674;9.242;2023-08-06T13:55:32;19.80;56.50
21502;DHT22;27639;48.674;9.242;2023-08-06T13:57:57;19.90;56.20
21502;DHT22;27639;48.674;9.242;2023-08-06T14:00:23;19.90;55.80
21502;DHT22;27639;48.674;9.242;2023-08-06T14:02:49;19.90;55.80
21502;DHT22;27639;48.674;9.242;2023-08-06T14:05:14;20.00;55.50
21502;DHT22;27639;48.674;9.242;2023-08-06T14:07:40;20.00;55.40
21502;DHT22;27639;48.674;9.242;2023-08-06T14:10:06;20.00;55.10
21502;DHT22;27639;48.674;9.242;2023-08-06T14:12:32;20.00;55.00
21502;DHT22;27639;48.674;9.242;2023-08-06T14:14:57;20.10;55.30
21502;DHT22;27639;48.674;9.242;2023-08-06T14:17:23;20.10;55.00
21502;DHT22;27639;48.674;9.242;2023-08-06T14:19:48;20.10;54.60
21502;DHT22;27639;48.674;9.242;2023-08-06T14:22:14;20.10;54.60
21502;DHT22;27639;48.674;9.242;2023-08-06T14:24:40;20.10;54.40
21502;DHT22;27639;48.674;9.242;2023-08-06T14:27:07;20.10;54.30
21502;DHT22;27639;48.674;9.242;2023-08-06T14:29:32;20.20;54.50
21502;DHT22;27639;48.674;9.242;2023-08-06T14:31:58;20.20;54.30
21502;DHT22;27639;48.674;9.242;2023-08-06T14:34:23;20.10;54.60
21502;DHT22;27639;48.674;9.242;2023-08-06T14:36:49;20.10;54.30
21502;DHT22;27639;48.674;9.242;2023-08-06T14:39:14;20.10;54.30
21502;DHT22;27639;48.674;9.242;2023-08-06T14:41:40;20.10;54.40
21502;DHT22;27639;48.674;9.242;2023-08-06T14:44:06;20.00;55.40
21502;DHT22;27639;48.674;9.242;2023-08-06T14:46:32;20.00;55.60
21502;DHT22;27639;48.674;9.242;2023-08-06T14:48:58;20.00;55.70
21502;DHT22;27639;48.674;9.242;2023-08-06T14:51:24;19.90;55.90
21502;DHT22;27639;48.674;9.242;2023-08-06T14:53:49;19.90;56.40
21502;DHT22;27639;48.674;9.242;2023-08-06T14:56:15;19.90;56.20
21502;DHT22;27639;48.674;9.242;2023-08-06T14:58:41;19.90;56.30
21502;DHT22;27639;48.674;9.242;2023-08-06T15:01:07;19.80;56.30
21502;DHT22;27639;48.674;9.242;2023-08-06T15:03:32;19.70;56.50
21502;DHT22;27639;48.674;9.242;2023-08-06T15:05:59;19.70;56.80
21502;DHT22;27639;48.674;9.242;2023-08-06T15:08:24;19.70;57.10
21502;DHT22;27639;48.674;9.242;2023-08-06T15:10:54;19.70;57.60
21502;DHT22;27639;48.674;9.242;2023-08-06T15:13:20;19.70;57.00
21502;DHT22;27639;48.674;9.242;2023-08-06T15:15:49;19.70;56.50
21502;DHT22;27639;48.674;9.242;2023-08-06T15:18:15;19.60;56.30
21502;DHT22;27639;48.674;9.242;2023-08-06T15:20:40;19.60;56.20
21502;DHT22;27639;48.674;9.242;2023-08-06T15:23:06;19.60;56.60
21502;DHT22;27639;48.674;9.242;2023-08-06T15:25:31;19.50;56.40
21502;DHT22;27639;48.674;9.242;2023-08-06T15:27:57;19.50;56.40
21502;DHT22;27639;48.674;9.242;2023-08-06T15:30:23;19.40;56.60
21502;DHT22;27639;48.674;9.242;2023-08-06T15:32:48;19.50;56.80
21502;DHT22;27639;48.674;9.242;2023-08-06T15:35:14;19.60;57.20